Time;durP1;ratioP1;P1;durP2;ratioP2;P2;SDS_P1;SDS_P2;PMS_P1;PMS_P2;Temp;Humidity;BMP_temperature;BMP_pressure;BME280_temperature;BME280_humidity;BME280_pressure;Samples;Min_cycle;Max_cycle;Signal;HPM_P1;HPM_P2
2021/11/04 00:00:25;;;;;;;32.85;20.63;;;;;;;9.07;100.00;96187.59;5113934;28;20040;-86
2021/11/04 00:02:55;;;;;;;36.25;20.95;;;;;;;9.09;100.00;96188.03;5113804;28;20067;-86
2021/11/04 00:05:26;;;;;;;34.15;21.10;;;;;;;9.15;100.00;96204.78;5112771;28;20044;-86
2021/11/04 00:07:57;;;;;;;35.00;21.45;;;;;;;8.97;100.00;96176.47;5111725;28;20058;-85
2021/11/04 00:10:25;;;;;;;35.80;21.42;;;;;;;8.93;100.00;96176.34;5112809;28;20058;-86
2021/11/04 00:12:56;;;;;;;35.60;21.48;;;;;;;8.98;100.00;96188.84;5114232;28;20050;-87
2021/11/04 00:15:25;;;;;;;34.50;22.13;;;;;;;8.81;100.00;96184.47;5113776;28;20039;-87
2021/11/04 00:17:53;;;;;;;37.08;21.40;;;;;;;9.01;100.00;96205.13;5113886;28;20503;-86
2021/11/04 00:20:23;;;;;;;32.65;20.95;;;;;;;8.75;100.00;96175.81;5113976;28;20078;-87
2021/11/04 00:22:50;;;;;;;33.40;20.70;;;;;;;8.76;100.00;96160.41;5114257;28;20047;-88
2021/11/04 00:25:20;;;;;;;32.92;20.73;;;;;;;8.57;100.00;96154.78;5114608;28;20048;-87
2021/11/04 00:27:48;;;;;;;35.25;21.63;;;;;;;8.59;100.00;96163.34;5114856;28;20048;-86
2021/11/04 00:30:17;;;;;;;35.95;22.77;;;;;;;8.49;100.00;96193.47;5111215;28;20048;-86
2021/11/04 00:32:47;;;;;;;36.67;22.35;;;;;;;8.46;100.00;96186.84;5110050;28;20051;-85
2021/11/04 00:35:16;;;;;;;34.95;21.95;;;;;;;8.46;100.00;96177.97;5111608;28;20083;-84
2021/11/04 00:37:43;;;;;;;37.25;21.30;;;;;;;8.74;100.00;96179.66;5109706;28;20142;-86
2021/11/04 00:40:12;;;;;;;40.42;22.80;;;;;;;9.05;100.00;96202.53;5112382;28;20054;-86
2021/11/04 00:42:41;;;;;;;36.85;21.50;;;;;;;8.71;100.00;96150.63;5106162;28;20055;-86
2021/11/04 00:45:21;;;;;;;38.58;22.10;;;;;;;8.56;100.00;96153.22;5109046;28;20043;-86
2021/11/04 00:48:01;;;;;;;35.03;21.10;;;;;;;8.43;100.00;96148.97;5107388;28;20062;-86
2021/11/04 00:50:35;;;;;;;32.75;19.38;;;;;;;8.27;100.00;96131.88;5108825;28;20048;-87
2021/11/04 00:53:03;;;;;;;36.05;21.60;;;;;;;8.32;100.00;96148.63;5109578;28;20047;-86
2021/11/04 00:55:30;;;;;;;35.10;21.08;;;;;;;8.48;100.00;96167.63;5110463;28;20039;-87
2021/11/04 00:57:59;;;;;;;33.63;20.92;;;;;;;8.04;100.00;96153.84;5113592;28;20055;-85
2021/11/04 01:00:41;;;;;;;36.00;21.95;;;;;;;7.87;100.00;96147.84;5114908;28;20051;-87
2021/11/04 01:03:08;;;;;;;37.00;22.67;;;;;;;8.12;100.00;96161.03;5117071;28;20092;-86
2021/11/04 01:05:37;;;;;;;36.80;22.00;;;;;;;7.92;100.00;96155.72;5117114;28;20142;-85
2021/11/04 01:08:04;;;;;;;34.70;21.80;;;;;;;7.90;100.00;96133.69;5114948;28;20051;-87
2021/11/04 01:10:36;;;;;;;34.72;20.80;;;;;;;7.97;100.00;96159.00;5116194;28;20058;-86
2021/11/04 01:13:03;;;;;;;39.83;23.63;;;;;;;8.08;100.00;96164.72;5115318;28;20042;-86
2021/11/04 01:15:31;;;;;;;38.00;23.67;;;;;;;8.00;100.00;96155.63;5114852;28;20044;-88
2021/11/04 01:17:57;;;;;;;39.53;23.15;;;;;;;8.15;100.00;96162.28;5094532;28;20442;-87
2021/11/04 01:20:24;;;;;;;38.92;22.85;;;;;;;8.07;100.00;96147.00;5094909;28;20135;-88
2021/11/04 01:22:53;;;;;;;41.72;24.05;;;;;;;8.22;100.00;96122.06;5094628;28;20083;-87
2021/11/04 01:25:20;;;;;;;42.28;24.15;;;;;;;8.41;100.00;96118.84;5091829;28;20052;-86
2021/11/04 01:27:47;;;;;;;38.30;23.02;;;;;;;8.37;100.00;96093.69;5092023;28;20048;-88
2021/11/04 01:30:31;;;;;;;;;;;;;;;;;;;;;
2021/11/04 01:33:12;;;;;;;38.78;22.27;;;;;;;8.48;100.00;96113.69;5101618;28;20048;-87
2021/11/04 01:35:39;;;;;;;36.80;21.48;;;;;;;8.61;100.00;96113.34;5092596;28;20044;-86
2021/11/04 01:38:09;;;;;;;37.15;22.50;;;;;;;8.48;100.00;96090.19;5092872;28;20056;-87
2021/11/04 01:40:36;;;;;;;38.90;22.55;;;;;;;8.57;100.00;96122.44;5094076;28;20579;-87
2021/11/04 01:43:04;;;;;;;35.50;21.45;;;;;;;8.48;100.00;96108.28;5093655;28;20127;-86
2021/11/04 01:45:32;;;;;;;39.50;22.38;;;;;;;8.57;100.00;96098.94;5092630;28;20055;-88
2021/11/04 01:48:02;;;;;;;38.65;22.83;;;;;;;8.90;100.00;96101.50;5093857;28;20048;-88
2021/11/04 01:50:30;;;;;;;39.03;24.23;;;;;;;8.79;100.00;96092.28;5093090;28;20071;-87
2021/11/04 01:52:59;;;;;;;34.75;21.50;;;;;;;8.42;100.00;96074.56;5091143;28;20051;-88
2021/11/04 01:55:28;;;;;;;37.38;21.63;;;;;;;8.64;100.00;96093.00;5089812;28;20120;-88
2021/11/04 01:58:01;;;;;;;35.15;21.92;;;;;;;8.26;100.00;96084.47;5090708;28;20044;-87
2021/11/04 02:01:01;;;;;;;38.78;22.90;;;;;;;8.11;100.00;96085.91;5096367;28;20250;-86
2021/11/04 02:03:38;;;;;;;38.63;23.48;;;;;;;8.29;100.00;96102.66;5092106;28;20581;-86
2021/11/04 02:06:19;;;;;;;36.67;22.40;;;;;;;8.53;100.00;96089.97;5092998;28;20066;-88
2021/11/04 02:09:20;;;;;;;40.20;23.15;;;;;;;8.46;100.00;96087.06;5097907;28;20036;-87
2021/11/04 02:11:54;;;;;;;40.65;23.95;;;;;;;8.66;100.00;96093.44;5095878;28;20537;-87
2021/11/04 02:14:32;;;;;;;39.47;23.08;;;;;;;8.81;100.00;96091.94;5095691;28;20040;-87
2021/11/04 02:17:01;;;;;;;41.55;23.15;;;;;;;8.72;100.00;96086.69;5095453;28;20067;-86
2021/11/04 02:19:44;;;;;;;39.67;23.45;;;;;;;8.96;100.00;96112.81;5104482;22;20048;-81
2021/11/04 02:22:26;;;;;;;35.80;21.80;;;;;;;8.95;100.00;96093.16;5094135;28;20149;-82
2021/11/04 02:25:26;;;;;;;42.60;23.50;;;;;;;8.97;100.00;96096.28;5096353;28;20040;-82
2021/11/04 02:27:58;;;;;;;39.88;22.27;;;;;;;8.81;100.00;96083.84;5113632;28;20060;-82
2021/11/04 02:30:27;;;;;;;34.53;22.00;;;;;;;8.71;100.00;96072.41;5113714;28;20098;-82
2021/11/04 02:32:55;;;;;;;42.25;23.17;;;;;;;8.91;100.00;96080.66;5130864;28;20106;-78
2021/11/04 02:35:22;;;;;;;39.90;23.20;;;;;;;8.64;100.00;96069.50;5116281;28;20625;-79
2021/11/04 02:37:52;;;;;;;41.03;23.90;;;;;;;8.55;100.00;96078.84;5113636;28;20058;-82
2021/11/04 02:40:21;;;;;;;40.50;23.70;;;;;;;8.18;100.00;96053.00;5095775;28;20052;-81
2021/11/04 02:42:49;;;;;;;40.22;22.85;;;;;;;8.30;100.00;96067.31;5095395;28;20073;-80
2021/11/04 02:45:19;;;;;;;38.45;24.10;;;;;;;8.27;100.00;96067.97;5113768;28;20052;-82
2021/11/04 02:47:46;;;;;;;41.20;24.27;;;;;;;8.49;100.00;96074.81;5095650;28;20079;-82
2021/11/04 02:50:13;;;;;;;41.53;24.83;;;;;;;8.61;100.00;96075.59;5095649;28;20051;-80
2021/11/04 02:52:40;;;;;;;38.60;23.20;;;;;;;8.66;100.00;96052.97;5113840;28;20047;-83
2021/11/04 02:55:07;;;;;;;41.92;23.38;;;;;;;8.74;100.00;96066.34;5115133;28;20096;-80
2021/11/04 02:57:49;;;;;;;37.78;23.05;;;;;;;8.71;100.00;96055.44;5115219;28;20044;-80
2021/11/04 03:00:17;;;;;;;40.83;24.27;;;;;;;8.87;100.00;96053.59;5116065;28;20047;-80
2021/11/04 03:02:44;;;;;;;43.85;25.10;;;;;;;8.81;100.00;96049.56;5102734;28;20376;-80
2021/11/04 03:05:11;;;;;;;43.70;25.83;;;;;;;8.73;100.00;96062.06;5112262;28;20063;-79
2021/11/04 03:07:38;;;;;;;41.53;24.63;;;;;;;8.90;100.00;96061.00;5127762;28;20051;-78
2021/11/04 03:10:06;;;;;;;40.47;25.15;;;;;;;8.98;100.00;96056.59;5109288;28;20044;-78
2021/11/04 03:12:33;;;;;;;43.30;25.55;;;;;;;8.87;100.00;96050.09;5128008;28;20044;-78
2021/11/04 03:15:08;;;;;;;43.45;25.70;;;;;;;8.80;100.00;96053.38;5127907;28;20047;-77
2021/11/04 03:17:37;;;;;;;44.40;27.02;;;;;;;8.81;100.00;96059.56;5127614;28;20060;-77
2021/11/04 03:20:05;;;;;;;42.78;25.20;;;;;;;8.87;100.00;96058.22;5131332;28;20031;-78
2021/11/04 03:22:33;;;;;;;42.72;25.75;;;;;;;8.83;100.00;96055.41;5129800;28;20047;-77
2021/11/04 03:24:59;;;;;;;46.80;27.20;;;;;;;8.80;100.00;96047.97;5112266;28;20044;-77
2021/11/04 03:27:26;;;;;;;44.58;25.77;;;;;;;8.88;100.00;96040.91;5112603;28;20308;-77
2021/11/04 03:29:53;;;;;;;41.00;25.80;;;;;;;8.87;100.00;96042.81;5110165;28;20048;-79
2021/11/04 03:32:22;;;;;;;43.05;25.50;;;;;;;8.92;100.00;96052.56;5098681;28;20051;-81
2021/11/04 03:34:50;;;;;;;43.55;26.30;;;;;;;8.91;100.00;96048.28;5112881;28;20244;-79
2021/11/04 03:37:21;;;;;;;45.35;26.83;;;;;;;8.65;100.00;96048.69;5110861;28;20138;-82
2021/11/04 03:39:48;;;;;;;45.83;27.35;;;;;;;8.64;100.00;96044.44;5093877;28;20047;-81
2021/11/04 03:42:16;;;;;;;47.03;27.58;;;;;;;8.48;100.00;96044.38;5094547;28;20040;-80
2021/11/04 03:44:43;;;;;;;44.20;27.08;;;;;;;8.57;100.00;96034.22;5111714;28;20039;-78
2021/11/04 03:47:12;;;;;;;46.58;27.27;;;;;;;8.67;100.00;96049.94;5094424;28;20055;-81
2021/11/04 03:49:40;;;;;;;46.55;27.90;;;;;;;8.69;100.00;96046.91;5093772;28;20048;-81
2021/11/04 03:52:07;;;;;;;47.65;28.20;;;;;;;8.63;100.00;96037.47;5112005;28;20051;-79
2021/11/04 03:54:34;;;;;;;49.13;27.50;;;;;;;8.51;100.00;96029.41;5111836;28;20044;-80
2021/11/04 03:57:01;;;;;;;48.45;28.42;;;;;;;8.65;100.00;96027.91;5112010;28;20051;-79
2021/11/04 03:59:27;;;;;;;46.75;26.95;;;;;;;8.59;100.00;96021.16;5111782;28;20139;-78
2021/11/04 04:01:54;;;;;;;45.85;27.38;;;;;;;8.53;100.00;96013.66;5093525;28;20048;-80
2021/11/04 04:04:21;;;;;;;43.75;26.42;;;;;;;8.52;100.00;96004.00;5111040;28;20313;-80
2021/11/04 04:06:55;;;;;;;47.85;26.80;;;;;;;8.54;100.00;96005.22;5111835;28;20073;-78
2021/11/04 04:09:23;;;;;;;50.10;27.30;;;;;;;8.48;100.00;96000.44;5120416;28;20099;-78
2021/11/04 04:11:51;;;;;;;52.47;28.27;;;;;;;8.53;100.00;95987.50;5112296;28;20105;-80
2021/11/04 04:14:19;;;;;;;45.85;26.83;;;;;;;8.46;100.00;95978.41;5110948;28;20311;-81
2021/11/04 04:16:46;;;;;;;49.15;27.98;;;;;;;8.47;100.00;95977.28;5109041;28;20219;-79
2021/11/04 04:19:12;;;;;;;50.45;27.75;;;;;;;8.48;100.00;95968.06;5113351;28;20067;-82
2021/11/04 04:21:39;;;;;;;48.13;26.85;;;;;;;8.47;100.00;95971.88;5131275;28;20100;-81
2021/11/04 04:24:06;;;;;;;50.80;28.63;;;;;;;8.44;100.00;95973.34;5131520;28;20103;-77
2021/11/04 04:26:33;;;;;;;53.40;29.45;;;;;;;8.39;100.00;95973.59;5103091;28;20075;-79
2021/11/04 04:28:59;;;;;;;54.72;30.17;;;;;;;8.50;100.00;95980.09;5083203;28;20122;-78
2021/11/04 04:31:26;;;;;;;50.83;30.02;;;;;;;8.50;100.00;95953.13;5086918;28;20766;-78
2021/11/04 04:33:54;;;;;;;52.75;30.75;;;;;;;8.50;100.00;95965.81;5083136;28;20048;-81
2021/11/04 04:36:20;;;;;;;58.97;32.42;;;;;;;8.59;100.00;95958.38;5083560;28;20051;-81
2021/11/04 04:38:47;;;;;;;61.22;31.70;;;;;;;8.67;100.00;95960.16;5096514;28;20439;-81
2021/11/04 04:41:15;;;;;;;58.90;32.03;;;;;;;8.66;100.00;95948.56;5077389;28;20575;-79
2021/11/04 04:43:41;;;;;;;58.60;31.33;;;;;;;8.61;100.00;95948.81;5077147;28;20504;-82
2021/11/04 04:46:08;;;;;;;54.75;31.13;;;;;;;8.62;100.00;95952.31;5104963;28;20047;-83
2021/11/04 04:48:35;;;;;;;62.17;32.40;;;;;;;8.63;100.00;95948.47;5115749;28;20051;-81
2021/11/04 04:51:02;;;;;;;63.42;33.90;;;;;;;8.69;100.00;95939.81;5119889;28;20090;-83
2021/11/04 04:53:28;;;;;;;63.95;34.58;;;;;;;8.49;100.00;95959.63;5121837;28;20488;-80
2021/11/04 04:55:54;;;;;;;68.18;35.55;;;;;;;8.24;100.00;95939.22;5120481;28;20482;-82
2021/11/04 04:58:21;;;;;;;65.57;35.13;;;;;;;8.26;100.00;95936.97;5126350;28;20040;-79
2021/11/04 05:00:47;;;;;;;70.15;35.53;;;;;;;8.26;100.00;95944.31;5114001;28;20047;-81
2021/11/04 05:03:14;;;;;;;69.80;36.22;;;;;;;8.24;100.00;95936.53;5101288;28;20539;-82
2021/11/04 05:05:41;;;;;;;70.15;36.78;;;;;;;8.24;100.00;95927.66;5097810;28;20044;-83
2021/11/04 05:08:07;;;;;;;76.28;37.47;;;;;;;8.21;100.00;95923.72;5113774;28;20108;-82
2021/11/04 05:10:34;;;;;;;71.75;37.22;;;;;;;8.27;100.00;95921.63;5114528;28;20132;-82
2021/11/04 05:13:00;;;;;;;74.63;37.42;;;;;;;8.31;100.00;95909.81;5095844;28;20082;-83
2021/11/04 05:15:27;;;;;;;82.00;39.65;;;;;;;8.27;100.00;95911.63;5096491;28;20399;-81
2021/11/04 05:17:53;;;;;;;76.90;38.30;;;;;;;8.30;100.00;95912.84;5095336;28;20079;-81
2021/11/04 05:20:20;;;;;;;78.68;36.75;;;;;;;8.24;100.00;95916.88;5114338;28;20055;-80
2021/11/04 05:22:46;;;;;;;83.43;37.60;;;;;;;8.13;100.00;95914.66;5115650;28;20051;-83
2021/11/04 05:25:13;;;;;;;80.18;37.38;;;;;;;8.13;100.00;95906.56;5117988;28;20059;-82
2021/11/04 05:27:47;;;;;;;76.88;36.35;;;;;;;7.94;100.00;95901.03;5115062;28;20073;-82
2021/11/04 05:30:15;;;;;;;76.85;37.40;;;;;;;8.09;100.00;95921.06;5113986;28;20078;-82
2021/11/04 05:32:42;;;;;;;77.80;36.28;;;;;;;8.06;100.00;95921.75;5113726;28;20078;-82
2021/11/04 05:35:09;;;;;;;78.03;37.10;;;;;;;8.02;100.00;95915.50;5104316;28;20051;-84
2021/11/04 05:37:36;;;;;;;90.85;38.25;;;;;;;8.00;100.00;95910.41;5095633;28;20206;-81
2021/11/04 05:40:04;;;;;;;82.20;37.47;;;;;;;7.95;100.00;95915.25;5113895;28;20047;-83
2021/11/04 05:42:31;;;;;;;82.68;40.17;;;;;;;7.86;100.00;95909.22;5096119;28;20079;-84
2021/11/04 05:44:57;;;;;;;79.30;38.28;;;;;;;7.81;100.00;95904.06;5115075;28;20142;-81
2021/11/04 05:47:24;;;;;;;83.07;39.58;;;;;;;7.90;100.00;95899.31;5114597;28;20313;-82
2021/11/04 05:49:50;;;;;;;84.15;41.33;;;;;;;7.82;100.00;95903.72;5118765;28;20356;-81
2021/11/04 05:52:17;;;;;;;82.57;41.38;;;;;;;7.87;100.00;95914.25;5094383;28;20083;-81
2021/11/04 05:54:44;;;;;;;84.00;41.40;;;;;;;7.67;100.00;95900.94;5112943;28;20067;-85
2021/11/04 05:57:10;;;;;;;80.90;41.58;;;;;;;7.67;100.00;95911.69;5095105;28;20086;-82
2021/11/04 05:59:37;;;;;;;89.10;41.90;;;;;;;7.62;100.00;95901.16;5086906;28;20050;-85
2021/11/04 06:02:03;;;;;;;89.93;42.92;;;;;;;7.50;100.00;95900.06;5073586;28;20048;-84
2021/11/04 06:04:34;;;;;;;86.13;42.75;;;;;;;7.60;100.00;95914.97;5075558;28;20048;-85
2021/11/04 06:07:04;;;;;;;92.38;43.58;;;;;;;7.59;100.00;95909.94;5078866;28;20054;-83
2021/11/04 06:09:31;;;;;;;96.30;44.30;;;;;;;7.79;100.00;95919.78;5095852;28;20052;-86
2021/11/04 06:11:58;;;;;;;95.32;44.40;;;;;;;7.37;100.00;95887.72;5079761;28;20142;-85
2021/11/04 06:14:25;;;;;;;100.97;44.22;;;;;;;7.47;100.00;95898.03;5076193;28;20082;-85
2021/11/04 06:16:51;;;;;;;103.95;46.33;;;;;;;7.56;100.00;95922.16;5074421;28;20188;-84
2021/11/04 06:19:20;;;;;;;99.07;45.10;;;;;;;7.72;100.00;95925.72;5092929;28;20067;-86
2021/11/04 06:21:47;;;;;;;100.30;44.70;;;;;;;7.52;100.00;95910.47;5092012;28;20117;-85
2021/11/04 06:24:13;;;;;;;90.40;42.33;;;;;;;7.56;100.00;95913.28;5092620;28;20105;-82
2021/11/04 06:26:43;;;;;;;104.15;45.10;;;;;;;7.58;100.00;95911.84;5074175;28;20048;-83
2021/11/04 06:29:10;;;;;;;101.80;43.80;;;;;;;7.57;100.00;95915.63;5092167;28;20079;-85
2021/11/04 06:31:36;;;;;;;95.65;42.75;;;;;;;7.61;100.00;95915.75;5073760;28;20055;-86
2021/11/04 06:34:04;;;;;;;83.32;39.92;;;;;;;7.49;100.00;95911.94;5092235;28;20044;-82
2021/11/04 06:36:30;;;;;;;84.00;39.90;;;;;;;7.29;100.00;95888.63;5092657;28;20048;-86
2021/11/04 06:38:59;;;;;;;84.03;37.65;;;;;;;7.46;100.00;95904.53;5080276;28;20086;-84
2021/11/04 06:41:25;;;;;;;79.47;36.80;;;;;;;7.47;100.00;95924.16;5075580;28;20396;-85
2021/11/04 06:43:52;;;;;;;75.55;35.95;;;;;;;7.42;100.00;95903.66;5090782;28;20067;-85
2021/11/04 06:46:23;;;;;;;74.57;34.25;;;;;;;7.49;100.00;95919.22;5101040;28;20489;-84
2021/11/04 06:49:07;;;;;;;78.35;35.13;;;;;;;7.59;100.00;95913.38;5076649;28;20151;-83
2021/11/04 06:51:37;;;;;;;71.65;34.40;;;;;;;7.62;100.00;95920.81;5094109;28;20044;-85
2021/11/04 06:54:06;;;;;;;71.97;33.08;;;;;;;7.58;100.00;95916.44;5074992;28;20450;-86
2021/11/04 06:56:46;;;;;;;71.05;32.97;;;;;;;7.44;100.00;95904.09;5074570;28;20067;-85
2021/11/04 06:59:20;;;;;;;64.00;30.02;;;;;;;7.67;100.00;95915.19;5074120;28;20396;-85
2021/11/04 07:01:54;;;;;;;61.03;29.23;;;;;;;7.81;100.00;95912.16;5073871;28;20100;-83
2021/11/04 07:04:34;;;;;;;52.90;26.85;;;;;;;7.78;100.00;95908.22;5102504;28;20059;-81
2021/11/04 07:07:12;;;;;;;55.38;27.27;;;;;;;7.91;100.00;95917.88;5079485;28;20044;-84
2021/11/04 07:09:42;;;;;;;58.53;27.33;;;;;;;7.91;100.00;95909.78;5091899;28;20048;-83
2021/11/04 07:12:10;;;;;;;52.35;25.88;;;;;;;7.87;100.00;95900.78;5074928;28;20052;-83
2021/11/04 07:14:40;;;;;;;41.53;22.35;;;;;;;7.85;100.00;95910.34;5091983;28;20052;-86
2021/11/04 07:17:09;;;;;;;40.30;21.20;;;;;;;7.46;100.00;95915.31;5091844;28;20044;-87
2021/11/04 07:19:35;;;;;;;37.92;19.33;;;;;;;7.58;100.00;95919.13;5091625;28;20086;-86
2021/11/04 07:22:30;;;;;;;40.13;19.98;;;;;;;7.47;100.00;95916.88;5092012;28;20047;-85
2021/11/04 07:25:13;;;;;;;38.40;20.67;;;;;;;7.58;100.00;95919.91;5074649;28;20117;-85
2021/11/04 07:28:12;;;;;;;39.58;20.75;;;;;;;7.61;100.00;95921.16;5092470;28;20109;-83
2021/11/04 07:30:39;;;;;;;41.58;20.50;;;;;;;7.49;100.00;95909.25;5091587;28;20456;-87
2021/11/04 07:33:06;;;;;;;40.95;20.45;;;;;;;7.41;100.00;95909.34;5077009;28;20044;-84
2021/11/04 07:35:36;;;;;;;46.35;20.70;;;;;;;7.65;100.00;95911.25;5090595;28;20234;-85
2021/11/04 07:38:06;;;;;;;35.78;19.58;;;;;;;7.55;100.00;95899.03;5092068;28;20082;-87
2021/11/04 07:40:33;;;;;;;40.03;18.83;;;;;;;7.49;100.00;95903.88;5090665;28;20083;-86
2021/11/04 07:43:00;;;;;;;37.83;18.83;;;;;;;7.46;100.00;95888.38;5074638;28;20048;-85
2021/11/04 07:45:28;;;;;;;38.30;19.38;;;;;;;7.35;100.00;95892.66;5073754;28;20099;-83
2021/11/04 07:47:55;;;;;;;34.10;18.17;;;;;;;7.39;100.00;95888.16;5073193;28;20056;-87
2021/11/04 07:50:25;;;;;;;33.92;16.90;;;;;;;7.34;100.00;95885.69;5073478;28;20162;-88
2021/11/04 07:52:53;;;;;;;33.55;16.25;;;;;;;7.33;100.00;95888.75;5073127;28;20079;-85
2021/11/04 07:55:20;;;;;;;30.50;16.27;;;;;;;7.35;100.00;95898.06;5073411;28;20568;-85
2021/11/04 07:57:47;;;;;;;33.72;16.50;;;;;;;7.42;100.00;95897.47;5073916;28;20060;-86
2021/11/04 08:00:16;;;;;;;30.60;15.75;;;;;;;7.32;100.00;95887.16;5073858;28;20109;-86
2021/11/04 08:02:43;;;;;;;26.33;15.05;;;;;;;7.38;100.00;95900.03;5092865;28;20052;-86
2021/11/04 08:05:13;;;;;;;26.25;13.82;;;;;;;7.35;100.00;95906.13;5077426;28;20083;-87
2021/11/04 08:07:40;;;;;;;26.55;14.77;;;;;;;7.30;100.00;95900.94;5096233;28;20044;-85
2021/11/04 08:10:10;;;;;;;30.70;14.15;;;;;;;7.27;100.00;95892.78;5096511;28;20134;-84
2021/11/04 08:12:37;;;;;;;20.52;12.15;;;;;;;7.29;100.00;95895.91;5088531;28;20048;-83
2021/11/04 08:15:07;;;;;;;25.80;13.90;;;;;;;7.30;100.00;95900.19;5110416;28;20048;-87
2021/11/04 08:17:34;;;;;;;23.83;12.82;;;;;;;7.20;100.00;95900.63;5084077;28;20047;-84
2021/11/04 08:20:02;;;;;;;19.80;11.45;;;;;;;7.01;100.00;95879.63;5132193;23;20046;-81
2021/11/04 08:22:29;;;;;;;19.50;11.77;;;;;;;7.10;100.00;95888.38;5136391;27;20084;-83
2021/11/04 08:24:55;;;;;;;19.75;11.35;;;;;;;7.15;100.00;95884.69;5156581;27;20146;-81
2021/11/04 08:27:24;;;;;;;18.33;10.60;;;;;;;7.12;100.00;95894.22;5155995;27;20046;-81
2021/11/04 08:29:50;;;;;;;19.80;11.18;;;;;;;7.12;100.00;95885.34;5155356;27;20043;-84
2021/11/04 08:32:17;;;;;;;18.83;10.40;;;;;;;7.05;100.00;95887.78;5137219;27;20546;-83
2021/11/04 08:34:44;;;;;;;17.70;9.98;;;;;;;7.08;100.00;95887.91;5138568;27;20051;-81
2021/11/04 08:37:11;;;;;;;17.63;10.10;;;;;;;7.08;100.00;95885.22;5155522;27;20043;-85
2021/11/04 08:39:41;;;;;;;17.60;8.85;;;;;;;7.03;100.00;95898.91;5137775;27;20055;-84
2021/11/04 08:42:12;;;;;;;22.98;9.20;;;;;;;7.01;100.00;95892.28;5157795;27;20123;-85
2021/11/04 08:44:45;;;;;;;14.80;9.05;;;;;;;7.12;100.00;95906.88;5143057;27;20107;-83
2021/11/04 08:47:17;;;;;;;16.27;8.65;;;;;;;7.36;100.00;95886.16;5143400;27;20039;-84
2021/11/04 08:49:44;;;;;;;19.00;8.82;;;;;;;7.06;100.00;95887.47;5141037;27;20144;-85
2021/11/04 08:52:20;;;;;;;15.15;9.18;;;;;;;7.18;100.00;95876.72;5157984;27;20570;-85
2021/11/04 08:54:58;;;;;;;16.02;9.43;;;;;;;7.02;100.00;95883.88;5140917;27;20047;-84
2021/11/04 08:57:31;;;;;;;14.57;8.05;;;;;;;7.15;100.00;95898.16;5144986;27;20051;-81
2021/11/04 09:00:05;;;;;;;14.48;7.40;;;;;;;6.97;100.00;95897.53;5140434;27;20047;-84
2021/11/04 09:02:39;;;;;;;14.10;7.85;;;;;;;7.08;100.00;95887.13;5144247;27;20088;-85
2021/11/04 09:05:08;;;;;;;15.05;8.68;;;;;;;7.21;100.00;95891.41;5155280;27;20508;-83
2021/11/04 09:08:00;;;;;;;18.83;9.85;;;;;;;7.31;100.00;95880.19;5132255;27;20445;-83
2021/11/04 09:10:44;;;;;;;19.73;11.68;;;;;;;6.96;100.00;95887.91;5159844;27;20110;-82
2021/11/04 09:13:11;;;;;;;17.45;9.82;;;;;;;6.91;100.00;95890.81;5157308;27;20034;-85
2021/11/04 09:15:47;;;;;;;18.92;10.82;;;;;;;7.00;100.00;95891.50;5157976;27;20146;-83
2021/11/04 09:29:39;;;;;;;13.75;8.38;;;;;;;7.08;100.00;95914.81;5166404;27;20035;-87
2021/11/04 09:36:14;;;;;;;13.55;7.55;;;;;;;6.90;100.00;95905.38;4886837;29;20056;-84
2021/11/04 09:43:54;;;;;;;13.70;8.00;;;;;;;7.15;100.00;95931.19;4928022;28;20161;-85
2021/11/04 09:47:10;;;;;;;11.05;6.68;;;;;;;7.03;100.00;95920.44;4968862;28;20050;-85
2021/11/04 09:54:32;;;;;;;;;;;;;;;;;;;;;
2021/11/04 10:01:56;;;;;;;;;;;;;;;7.19;100.00;95936.72;4932915;29;20043;-86
2021/11/04 10:05:00;;;;;;;12.00;7.78;;;;;;;7.16;100.00;95940.06;5003086;28;19975;-82
2021/11/04 10:07:53;;;;;;;9.25;6.47;;;;;;;7.15;100.00;95920.44;5006990;28;20034;-83
2021/11/04 10:10:40;;;;;;;10.43;6.50;;;;;;;7.25;100.00;95920.00;4995392;28;20055;-84
2021/11/04 10:14:20;;;;;;;9.10;6.03;;;;;;;7.34;100.00;95944.13;5012484;28;20053;-85
2021/11/04 10:17:41;;;;;;;8.48;5.78;;;;;;;7.25;100.00;95946.16;4993902;28;20140;-81
2021/11/04 10:24:25;;;;;;;8.73;5.10;;;;;;;6.92;100.00;95940.78;5048062;28;20045;-79
2021/11/04 10:26:54;;;;;;;5.03;3.47;;;;;;;6.72;100.00;95933.56;5085730;27;20323;-80
2021/11/04 10:29:26;;;;;;;6.25;4.15;;;;;;;6.84;100.00;95944.34;5154197;27;20050;-79
2021/11/04 10:32:01;;;;;;;4.78;3.20;;;;;;;6.84;100.00;95949.72;5137250;27;20101;-82
2021/11/04 10:34:35;;;;;;;4.00;2.75;;;;;;;6.51;100.00;95946.25;5154446;27;20095;-83
2021/11/04 10:37:23;;;;;;;7.22;2.70;;;;;;;6.41;100.00;95938.59;5153390;27;20065;-84
2021/11/04 10:39:56;;;;;;;3.97;2.67;;;;;;;6.40;100.00;95964.66;5133960;27;20107;-81
2021/11/04 10:42:26;;;;;;;3.72;2.67;;;;;;;6.46;100.00;95967.94;5135773;27;20043;-79
2021/11/04 10:45:55;;;;;;;5.32;3.10;;;;;;;6.52;100.00;95974.72;5134667;27;20106;-84
2021/11/04 10:48:24;;;;;;;5.35;3.10;;;;;;;6.38;100.00;95968.81;5098781;27;20147;-83
2021/11/04 10:50:51;;;;;;;5.00;3.20;;;;;;;6.46;100.00;95963.38;5162030;27;20046;-80
2021/11/04 10:53:20;;;;;;;4.75;2.90;;;;;;;6.42;100.00;95983.97;5137519;27;20478;-82
2021/11/04 10:56:15;;;;;;;3.88;2.70;;;;;;;6.79;100.00;95968.75;5135460;27;20050;-81
2021/11/04 10:58:58;;;;;;;4.10;2.70;;;;;;;6.64;100.00;95962.09;5135035;27;20488;-81
2021/11/04 11:01:43;;;;;;;3.78;2.67;;;;;;;6.78;100.00;95983.34;5153024;27;20525;-80
2021/11/04 11:04:24;;;;;;;3.20;2.38;;;;;;;6.68;100.00;95987.22;5135425;27;20046;-80
2021/11/04 11:07:29;;;;;;;3.30;2.20;;;;;;;6.72;100.00;95992.72;5153351;27;20054;-81
2021/11/04 11:10:22;;;;;;;3.78;2.15;;;;;;;6.75;100.00;95984.00;5138631;27;20405;-80
2021/11/04 11:12:56;;;;;;;2.95;2.15;;;;;;;6.74;100.00;95999.34;5152449;27;20434;-82
2021/11/04 11:15:57;;;;;;;2.55;1.90;;;;;;;6.81;100.00;95994.19;5125204;27;20046;-81
2021/11/04 11:18:30;;;;;;;3.78;1.88;;;;;;;6.86;100.00;96006.69;5152814;27;20065;-81
2021/11/04 11:21:17;;;;;;;2.80;2.10;;;;;;;6.77;100.00;95995.19;5152298;27;20047;-81
2021/11/04 11:24:17;;;;;;;2.97;1.83;;;;;;;6.79;100.00;96014.47;5129903;27;20363;-79
2021/11/04 11:26:55;;;;;;;5.10;1.40;;;;;;;6.36;100.00;96011.34;5154318;27;20409;-81
2021/11/04 11:29:53;;;;;;;1.63;1.13;;;;;;;6.53;100.00;96022.00;5152996;27;20043;-82
2021/11/04 11:32:29;;;;;;;1.65;0.98;;;;;;;6.72;100.00;96014.22;5151933;27;20047;-81
2021/11/04 11:35:39;;;;;;;1.60;1.02;;;;;;;6.90;100.00;96021.81;5154024;27;20053;-83
2021/11/04 11:42:16;;;;;;;2.28;1.10;;;;;;;6.42;100.00;96026.97;5152327;27;20520;-81
2021/11/04 11:45:32;;;;;;;2.00;1.20;;;;;;;6.37;100.00;96010.25;5152564;27;20058;-81
2021/11/04 11:48:39;;;;;;;2.45;1.20;;;;;;;6.60;100.00;96039.16;5067637;28;20467;-81
2021/11/04 11:52:24;;;;;;;2.55;1.50;;;;;;;6.70;100.00;96048.72;5136110;27;20129;-82
2021/11/04 11:55:36;;;;;;;3.28;1.40;;;;;;;6.65;100.00;96049.72;4976022;28;20054;-81
2021/11/04 12:02:57;;;;;;;2.60;1.53;;;;;;;6.61;100.00;96072.19;5129135;22;20089;-82
2021/11/04 12:05:34;;;;;;;2.10;1.23;;;;;;;6.59;100.00;96069.84;5077909;28;20369;-82
2021/11/04 12:08:21;;;;;;;2.95;1.40;;;;;;;6.54;100.00;96064.66;5118481;28;20039;-83
2021/11/04 12:10:48;;;;;;;1.90;1.10;;;;;;;6.58;100.00;96076.31;5099735;28;20051;-82
2021/11/04 12:13:31;;;;;;;3.25;0.90;;;;;;;6.59;100.00;96077.91;5136765;28;20083;-84
2021/11/04 12:16:18;;;;;;;0.80;0.60;;;;;;;6.50;100.00;96095.22;5136658;28;20051;-79
2021/11/04 12:18:52;;;;;;;1.70;0.77;;;;;;;6.49;100.00;96090.94;5140275;28;20066;-81
2021/11/04 12:21:21;;;;;;;2.45;0.50;;;;;;;6.36;100.00;96073.16;5124976;28;20051;-81
2021/11/04 12:23:48;;;;;;;1.27;0.50;;;;;;;6.40;100.00;96084.84;5117788;28;20100;-80
2021/11/04 12:26:28;;;;;;;0.65;0.50;;;;;;;6.38;100.00;96097.78;5137035;28;20051;-83
2021/11/04 12:28:55;;;;;;;1.17;0.55;;;;;;;6.45;100.00;96109.63;5118928;28;20281;-83
2021/11/04 12:31:23;;;;;;;1.10;0.50;;;;;;;6.36;100.00;96106.19;5137383;28;20511;-80
2021/11/04 12:33:53;;;;;;;4.13;0.80;;;;;;;6.31;100.00;96109.06;5135347;28;20047;-83